Terminal Aerodrome Forecast
Issued by NWS Blacksburg, VA

Home | Current Version | Previous Version | Text Only | Print | Product List | Glossary On
Versions: 1 2 3 4 5 6 7 8 9 10 11 12 13 14 15 16 17 18 19
000
FTUS41 KRNK 111124
TAFBLF
TAF
KBLF 111124Z 1112/1212 14004KT P6SM BKN100
     FM111500 17007KT P6SM SCT140
     FM120100 17014G27KT P6SM BKN080
     FM120900 22015G30KT 5SM -RA SCT025 OVC040=

USA.gov is the U.S. government's official web portal to all federal, state and local government web resources and services.